Aviation Digital Data Service (ADDS)

Output produced by METARs form (1026 UTC 19 February 2019)
found at http://www.aviationweather.gov/metar/data/
 
Forecast for: DNKA (KADUNA (CIV/MIL), NG)
Text: TAF DNKA 190330Z 1906/2012 04008KT CAVOK
Forecast period: 0600 UTC 19 February 2019 to 1200 UTC 20 February 2019
Forecast type: FROM: standard forecast or significant change
Winds: from the NE (40 degrees) at 9 MPH (8 knots; 4.1 m/s)
Visibility: 6 or more miles 10+ km)
Ceiling: unknown
Clouds: missing
Weather: NSW  (no significant weather)